createdAt,value
2023-05-14T00:00:38.773Z,9.45
2023-05-14T00:03:28.806Z,9.40
2023-05-14T00:06:15.101Z,9.33
2023-05-14T00:09:00.748Z,9.31
2023-05-14T00:11:47.530Z,9.31
2023-05-14T00:14:33.542Z,9.28
2023-05-14T00:17:18.984Z,9.25
2023-05-14T00:20:08.328Z,9.20
2023-05-14T00:22:54.949Z,9.18
2023-05-14T00:25:40.476Z,9.20
2023-05-14T00:28:27.088Z,9.16
2023-05-14T00:31:13.467Z,9.15
2023-05-14T00:33:58.931Z,9.15
2023-05-14T00:36:44.208Z,9.15
2023-05-14T00:39:29.522Z,9.18
2023-05-14T00:42:15.229Z,9.22
2023-05-14T00:45:00.826Z,9.26
2023-05-14T00:47:47.491Z,9.28
2023-05-14T00:50:34.047Z,9.31
2023-05-14T00:53:20.288Z,9.34
2023-05-14T00:56:07.710Z,9.38
2023-05-14T00:58:53.119Z,9.39
2023-05-14T01:01:38.834Z,9.36
2023-05-14T01:04:24.404Z,9.33
2023-05-14T01:07:33.452Z,9.31
2023-05-14T01:10:24.641Z,9.31
2023-05-14T01:13:29.374Z,9.27
2023-05-14T01:16:18.215Z,9.22
2023-05-14T01:19:07.276Z,9.17
2023-05-14T01:21:52.636Z,9.10
2023-05-14T01:24:39.264Z,9.00
2023-05-14T01:27:29.212Z,8.91
2023-05-14T01:30:14.744Z,8.84
2023-05-14T01:33:03.229Z,8.79
2023-05-14T01:35:52.987Z,8.76
2023-05-14T01:38:39.186Z,8.74
2023-05-14T01:41:26.329Z,8.67
2023-05-14T01:44:11.656Z,8.62
2023-05-14T01:46:57.070Z,8.59
2023-05-14T01:49:42.727Z,8.58
2023-05-14T01:52:27.988Z,8.57
2023-05-14T01:55:14.742Z,8.55
2023-05-14T01:58:00.338Z,8.54
2023-05-14T02:00:45.711Z,8.56
2023-05-14T02:03:31.393Z,8.54
2023-05-14T02:06:17.390Z,8.55
2023-05-14T02:09:03.667Z,8.52
2023-05-14T02:11:49.171Z,8.50
2023-05-14T02:14:34.655Z,8.50
2023-05-14T02:17:21.263Z,8.48
2023-05-14T02:20:09.896Z,8.46
2023-05-14T02:22:55.456Z,8.39
2023-05-14T02:25:40.641Z,8.35
2023-05-14T02:28:26.271Z,8.29
2023-05-14T02:31:12.490Z,8.24
2023-05-14T02:33:58.121Z,8.21
2023-05-14T02:36:43.752Z,8.19
2023-05-14T02:39:29.154Z,8.16
2023-05-14T02:42:14.807Z,8.16
2023-05-14T02:44:59.917Z,8.14
2023-05-14T02:47:45.656Z,8.14
2023-05-14T02:50:31.395Z,8.11
2023-05-14T02:53:19.247Z,8.11
2023-05-14T02:56:05.238Z,8.10
2023-05-14T02:58:50.574Z,8.07
2023-05-14T03:01:36.013Z,8.09
2023-05-14T03:04:21.652Z,8.12
2023-05-14T03:07:07.351Z,8.13
2023-05-14T03:09:53.072Z,8.19
2023-05-14T03:12:38.554Z,8.22
2023-05-14T03:15:23.856Z,8.26
2023-05-14T03:18:09.762Z,8.31
2023-05-14T03:20:55.003Z,8.37
2023-05-14T03:23:40.640Z,8.43
2023-05-14T03:26:27.659Z,8.49
2023-05-14T03:29:17.349Z,8.52
2023-05-14T03:32:03.914Z,8.59
2023-05-14T03:34:49.458Z,8.64
2023-05-14T03:37:35.077Z,8.71
2023-05-14T03:40:20.687Z,8.78
2023-05-14T03:43:06.628Z,8.85
2023-05-14T03:45:52.741Z,8.92
2023-05-14T03:48:38.812Z,9.01
2023-05-14T03:51:24.468Z,9.13
2023-05-14T03:54:10.269Z,9.27
2023-05-14T03:56:57.200Z,9.42
2023-05-14T03:59:42.864Z,9.57
2023-05-14T04:02:28.415Z,9.74
2023-05-14T04:05:13.964Z,9.89
2023-05-14T04:08:00.222Z,10.04
2023-05-14T04:10:45.746Z,10.20
2023-05-14T04:13:31.034Z,10.40
2023-05-14T04:16:16.440Z,10.59
2023-05-14T04:19:04.449Z,10.79
2023-05-14T04:21:50.256Z,10.98
2023-05-14T04:24:35.626Z,11.16
2023-05-14T04:27:21.589Z,11.33
2023-05-14T04:30:10.708Z,11.52
2023-05-14T04:32:56.461Z,11.69
2023-05-14T04:35:43.704Z,11.84
2023-05-14T04:38:28.917Z,11.99
2023-05-14T04:41:14.278Z,12.13
2023-05-14T04:44:01.334Z,12.29
2023-05-14T04:46:46.833Z,12.44
2023-05-14T04:49:32.894Z,12.58
2023-05-14T04:52:18.479Z,12.72
2023-05-14T04:55:04.466Z,12.85
2023-05-14T04:57:49.921Z,13.00
2023-05-14T05:00:35.769Z,13.13
2023-05-14T05:03:21.402Z,13.24
2023-05-14T05:06:07.123Z,13.37
2023-05-14T05:08:52.715Z,13.50
2023-05-14T05:11:38.294Z,13.63
2023-05-14T05:14:23.702Z,13.77
2023-05-14T05:17:09.085Z,13.91
2023-05-14T05:19:54.781Z,14.05
2023-05-14T05:22:40.092Z,14.17
2023-05-14T05:25:25.471Z,14.31
2023-05-14T05:28:11.142Z,14.45
2023-05-14T05:30:56.594Z,14.58
2023-05-14T05:33:42.281Z,14.69
2023-05-14T05:36:28.208Z,14.81
2023-05-14T05:39:13.516Z,14.91
2023-05-14T05:41:59.013Z,15.02
2023-05-14T05:44:44.427Z,15.12
2023-05-14T05:47:30.241Z,15.23
2023-05-14T05:50:16.383Z,15.36
2023-05-14T05:53:03.379Z,15.46
2023-05-14T05:55:50.985Z,15.58
2023-05-14T05:58:38.400Z,15.67
2023-05-14T06:01:23.821Z,15.77
2023-05-14T06:04:09.522Z,15.86
2023-05-14T06:06:54.789Z,15.96
2023-05-14T06:09:40.310Z,16.04
2023-05-14T06:12:27.692Z,16.12
2023-05-14T06:15:13.023Z,16.23
2023-05-14T06:17:58.398Z,16.36
2023-05-14T06:20:44.432Z,16.47
2023-05-14T06:23:30.021Z,16.58
2023-05-14T06:26:15.482Z,16.68
2023-05-14T06:29:01.334Z,16.80
2023-05-14T06:31:46.649Z,16.91
2023-05-14T06:34:32.584Z,17.04
2023-05-14T06:37:17.732Z,17.18
2023-05-14T06:40:03.655Z,17.32
2023-05-14T06:42:50.170Z,17.46
2023-05-14T06:45:35.965Z,17.62
2023-05-14T06:48:21.464Z,17.73
2023-05-14T06:51:06.884Z,17.81
2023-05-14T06:53:53.698Z,17.92
2023-05-14T06:56:39.427Z,18.03
2023-05-14T06:59:25.422Z,18.19
2023-05-14T07:02:11.749Z,18.34
2023-05-14T07:04:58.536Z,18.50
2023-05-14T07:07:43.926Z,18.61
2023-05-14T07:10:30.340Z,18.75
2023-05-14T07:13:15.670Z,18.88
2023-05-14T07:16:01.430Z,18.97
2023-05-14T07:18:47.544Z,19.03
2023-05-14T07:21:33.700Z,19.08
2023-05-14T07:24:19.206Z,19.20
2023-05-14T07:27:04.751Z,19.35
2023-05-14T07:29:50.359Z,19.45
2023-05-14T07:32:35.653Z,19.55
2023-05-14T07:35:22.875Z,19.64
2023-05-14T07:38:08.133Z,19.74
2023-05-14T07:40:53.850Z,19.81
2023-05-14T07:43:39.959Z,19.84
2023-05-14T07:46:26.662Z,19.84
2023-05-14T07:49:13.393Z,19.84
2023-05-14T07:51:58.694Z,19.83
2023-05-14T07:54:44.089Z,19.83
2023-05-14T07:57:29.494Z,19.88
2023-05-14T08:00:16.187Z,19.96
2023-05-14T08:03:01.781Z,20.04
2023-05-14T08:05:47.373Z,20.14
2023-05-14T08:08:33.275Z,20.18
2023-05-14T08:11:18.741Z,20.25
2023-05-14T08:14:04.521Z,20.34
2023-05-14T08:16:50.433Z,20.39
2023-05-14T08:19:36.009Z,20.40
2023-05-14T08:22:22.530Z,20.45
2023-05-14T08:25:08.217Z,20.50
2023-05-14T08:27:53.679Z,20.61
2023-05-14T08:30:39.292Z,20.70
2023-05-14T08:33:24.654Z,20.78
2023-05-14T08:36:10.382Z,20.82
2023-05-14T08:38:55.686Z,20.84
2023-05-14T08:41:42.290Z,20.94
2023-05-14T08:44:35.701Z,21.06
2023-05-14T08:47:23.198Z,21.14
2023-05-14T08:50:09.341Z,21.18
2023-05-14T08:52:54.920Z,21.17
2023-05-14T08:55:41.874Z,21.19
2023-05-14T08:58:28.168Z,21.17
2023-05-14T09:01:15.286Z,21.13
2023-05-14T09:04:06.383Z,21.15
2023-05-14T09:06:53.342Z,21.18
2023-05-14T09:09:40.948Z,21.24
2023-05-14T09:12:26.378Z,21.30
2023-05-14T09:15:12.605Z,21.32
2023-05-14T09:17:58.100Z,21.27
2023-05-14T09:20:46.792Z,21.26
2023-05-14T09:23:35.190Z,21.28
2023-05-14T09:26:25.675Z,21.34
2023-05-14T09:29:11.183Z,21.45
2023-05-14T09:31:59.420Z,21.52
2023-05-14T09:34:44.933Z,21.65
2023-05-14T09:37:30.341Z,21.80
2023-05-14T09:40:16.901Z,21.90
2023-05-14T09:43:03.040Z,21.92
2023-05-14T09:45:48.633Z,21.97
2023-05-14T09:48:34.193Z,22.10
2023-05-14T09:51:20.456Z,22.20
2023-05-14T09:54:09.136Z,22.30
2023-05-14T09:56:55.820Z,22.34
2023-05-14T09:59:41.449Z,22.31
2023-05-14T10:02:37.030Z,22.22
2023-05-14T10:05:23.145Z,22.24
2023-05-14T10:08:18.395Z,22.31
2023-05-14T10:11:09.104Z,22.41
2023-05-14T10:14:00.288Z,22.55
2023-05-14T10:16:53.258Z,22.53
2023-05-14T10:19:40.425Z,22.52
2023-05-14T10:22:33.040Z,22.50
2023-05-14T10:25:19.140Z,22.51
2023-05-14T10:28:05.669Z,22.53
2023-05-14T10:30:51.290Z,22.57
2023-05-14T10:33:49.338Z,22.66
2023-05-14T10:36:35.154Z,22.77
2023-05-14T10:39:20.791Z,22.79
2023-05-14T10:42:07.975Z,22.87
2023-05-14T10:45:01.322Z,22.81
2023-05-14T10:47:48.013Z,22.61
2023-05-14T10:50:34.078Z,22.53
2023-05-14T10:53:20.533Z,22.60
2023-05-14T10:56:08.344Z,22.68
2023-05-14T10:58:57.894Z,22.73
2023-05-14T11:01:45.329Z,22.81
2023-05-14T11:04:31.221Z,22.93
2023-05-14T11:07:18.691Z,23.14
2023-05-14T11:10:06.771Z,23.20
2023-05-14T11:12:52.240Z,23.22
2023-05-14T11:15:42.868Z,23.22
2023-05-14T11:18:29.648Z,23.16
2023-05-14T11:21:16.939Z,23.12
2023-05-14T11:24:04.801Z,23.08
2023-05-14T11:26:50.045Z,23.13
2023-05-14T11:29:37.087Z,23.29
2023-05-14T11:32:22.388Z,23.47
2023-05-14T11:35:08.214Z,23.63
2023-05-14T11:37:53.742Z,23.74
2023-05-14T11:40:39.160Z,23.80
2023-05-14T11:43:28.579Z,23.83
2023-05-14T11:46:18.294Z,23.86
2023-05-14T11:49:08.751Z,23.98
2023-05-14T11:52:02.893Z,24.11
2023-05-14T11:54:50.141Z,24.19
2023-05-14T11:57:41.987Z,24.17
2023-05-14T12:00:28.584Z,24.25
2023-05-14T12:03:14.615Z,24.18
2023-05-14T12:06:05.913Z,24.07
2023-05-14T12:08:51.353Z,24.21
2023-05-14T12:11:37.264Z,24.42
2023-05-14T12:14:23.905Z,24.81
2023-05-14T12:17:13.199Z,25.11
2023-05-14T12:19:58.756Z,25.33
2023-05-14T12:22:44.133Z,25.44
2023-05-14T12:25:29.365Z,25.59
2023-05-14T12:28:15.859Z,25.92
2023-05-14T12:31:02.211Z,26.20
2023-05-14T12:33:47.906Z,26.39
2023-05-14T12:36:33.378Z,26.72
2023-05-14T12:39:27.793Z,27.02
2023-05-14T12:42:21.656Z,26.96
2023-05-14T12:45:08.172Z,26.98
2023-05-14T12:47:54.782Z,26.88
2023-05-14T12:50:40.286Z,26.64
2023-05-14T12:53:26.455Z,26.23
2023-05-14T12:56:12.279Z,25.86
2023-05-14T12:58:57.774Z,25.67
2023-05-14T13:01:43.184Z,25.50
2023-05-14T13:04:28.625Z,25.23
2023-05-14T13:07:14.983Z,24.92
2023-05-14T13:10:00.372Z,24.47
2023-05-14T13:12:46.182Z,24.29
2023-05-14T13:15:33.949Z,24.27
2023-05-14T13:18:19.740Z,24.40
2023-05-14T13:21:05.898Z,24.40
2023-05-14T13:23:51.417Z,24.37
2023-05-14T13:26:37.598Z,24.47
2023-05-14T13:29:23.386Z,24.25
2023-05-14T13:32:11.340Z,24.05
2023-05-14T13:34:56.659Z,23.88
2023-05-14T13:37:43.462Z,23.98
2023-05-14T13:40:28.725Z,24.11
2023-05-14T13:43:16.367Z,24.41
2023-05-14T13:46:03.709Z,24.80
2023-05-14T13:48:49.152Z,25.26
2023-05-14T13:51:34.696Z,25.68
2023-05-14T13:54:21.589Z,26.08
2023-05-14T13:57:06.966Z,26.38
2023-05-14T13:59:52.425Z,26.49
2023-05-14T14:02:49.220Z,26.75
2023-05-14T14:05:42.832Z,27.26
2023-05-14T14:08:28.546Z,27.54
2023-05-14T14:11:14.018Z,27.55
2023-05-14T14:13:59.439Z,27.54
2023-05-14T14:16:45.175Z,27.22
2023-05-14T14:19:30.474Z,26.82
2023-05-14T14:22:16.768Z,26.59
2023-05-14T14:25:02.732Z,26.37
2023-05-14T14:27:49.323Z,25.94
2023-05-14T14:30:35.177Z,25.65
2023-05-14T14:33:20.776Z,25.56
2023-05-14T14:36:06.982Z,25.69
2023-05-14T14:38:52.124Z,26.03
2023-05-14T14:41:38.558Z,26.21
2023-05-14T14:44:24.210Z,26.21
2023-05-14T14:47:09.705Z,26.33
2023-05-14T14:49:56.709Z,26.26
2023-05-14T14:52:45.420Z,26.13
2023-05-14T14:55:31.837Z,25.87
2023-05-14T14:58:19.396Z,25.62
2023-05-14T15:01:05.284Z,25.20
2023-05-14T15:03:50.720Z,24.85
2023-05-14T15:06:36.429Z,24.54
2023-05-14T15:09:22.135Z,24.25
2023-05-14T15:12:10.276Z,23.99
2023-05-14T15:14:55.600Z,23.73
2023-05-14T15:17:41.462Z,23.53
2023-05-14T15:20:26.888Z,23.47
2023-05-14T15:23:12.383Z,23.38
2023-05-14T15:25:57.516Z,23.08
2023-05-14T15:28:43.281Z,22.80
2023-05-14T15:31:28.780Z,22.60
2023-05-14T15:34:14.208Z,22.53
2023-05-14T15:36:59.881Z,22.32
2023-05-14T15:39:44.972Z,22.31
2023-05-14T15:42:30.754Z,22.33
2023-05-14T15:45:15.983Z,22.30
2023-05-14T15:48:01.656Z,22.17
2023-05-14T15:50:49.557Z,22.09
2023-05-14T15:53:35.378Z,21.92
2023-05-14T15:56:24.787Z,21.74
2023-05-14T15:59:13.886Z,21.52
2023-05-14T16:01:59.570Z,21.37
2023-05-14T16:04:45.114Z,21.24
2023-05-14T16:07:30.691Z,21.11
2023-05-14T16:10:16.225Z,20.97
2023-05-14T16:13:01.548Z,20.87
2023-05-14T16:15:48.967Z,20.78
2023-05-14T16:18:34.114Z,20.68
2023-05-14T16:21:19.501Z,20.59
2023-05-14T16:24:05.704Z,20.49
2023-05-14T16:26:51.257Z,20.37
2023-05-14T16:29:36.656Z,20.24
2023-05-14T16:32:24.552Z,20.09
2023-05-14T16:35:10.250Z,20.00
2023-05-14T16:37:55.744Z,19.89
2023-05-14T16:40:41.286Z,19.76
2023-05-14T16:43:27.304Z,19.64
2023-05-14T16:46:13.586Z,19.51
2023-05-14T16:48:59.445Z,19.37
2023-05-14T16:51:44.661Z,19.22
2023-05-14T16:54:30.089Z,19.09
2023-05-14T16:57:16.726Z,18.93
2023-05-14T17:00:05.483Z,18.81
2023-05-14T17:02:53.488Z,18.68
2023-05-14T17:05:38.774Z,18.56
2023-05-14T17:08:25.237Z,18.43
2023-05-14T17:11:10.608Z,18.32
2023-05-14T17:13:58.965Z,18.21
2023-05-14T17:16:44.445Z,18.08
2023-05-14T17:19:29.890Z,17.98
2023-05-14T17:22:16.364Z,17.90
2023-05-14T17:25:02.766Z,17.82
2023-05-14T17:27:48.264Z,17.73
2023-05-14T17:30:33.609Z,17.65
2023-05-14T17:33:19.132Z,17.55
2023-05-14T17:36:04.915Z,17.46
2023-05-14T17:38:50.137Z,17.39
2023-05-14T17:41:35.645Z,17.31
2023-05-14T17:44:21.191Z,17.26
2023-05-14T17:47:08.569Z,17.17
2023-05-14T17:49:54.075Z,17.09
2023-05-14T17:52:41.629Z,17.04
2023-05-14T17:55:27.047Z,16.98
2023-05-14T17:58:14.804Z,16.94
2023-05-14T18:01:01.532Z,16.88
2023-05-14T18:03:47.324Z,16.83
2023-05-14T18:06:32.997Z,16.76
2023-05-14T18:09:18.859Z,16.70
2023-05-14T18:12:07.051Z,16.63
2023-05-14T18:14:52.637Z,16.59
2023-05-14T18:17:38.523Z,16.55
2023-05-14T18:20:23.983Z,16.53
2023-05-14T18:23:09.530Z,16.50
2023-05-14T18:25:55.159Z,16.46
2023-05-14T18:28:41.713Z,16.43
2023-05-14T18:31:27.947Z,16.39
2023-05-14T18:34:13.450Z,16.35
2023-05-14T18:36:59.309Z,16.34
2023-05-14T18:39:44.870Z,16.33
2023-05-14T18:42:30.272Z,16.32
2023-05-14T18:45:15.831Z,16.29
2023-05-14T18:48:01.205Z,16.22
2023-05-14T18:50:46.835Z,16.17
2023-05-14T18:53:32.861Z,16.11
2023-05-14T18:56:18.515Z,16.04
2023-05-14T18:59:04.237Z,15.97
2023-05-14T19:01:49.411Z,15.93
2023-05-14T19:04:47.894Z,15.88
2023-05-14T19:07:38.036Z,15.85
2023-05-14T19:10:23.568Z,15.79
2023-05-14T19:13:08.973Z,15.70
2023-05-14T19:15:54.800Z,15.60
2023-05-14T19:18:40.702Z,15.48
2023-05-14T19:21:26.664Z,15.44
2023-05-14T19:24:12.012Z,15.33
2023-05-14T19:26:57.533Z,15.17
2023-05-14T19:29:44.000Z,15.02
2023-05-14T19:32:29.733Z,14.92
2023-05-14T19:35:15.933Z,14.84
2023-05-14T19:38:01.164Z,14.76
2023-05-14T19:40:46.874Z,14.71
2023-05-14T19:43:32.606Z,14.60
2023-05-14T19:46:18.135Z,14.48
2023-05-14T19:49:03.667Z,14.35
2023-05-14T19:51:48.979Z,14.27
2023-05-14T19:54:34.275Z,14.17
2023-05-14T19:57:19.846Z,14.13
2023-05-14T20:00:08.250Z,14.11
2023-05-14T20:02:58.857Z,14.05
2023-05-14T20:05:45.016Z,14.00
2023-05-14T20:08:30.356Z,13.93
2023-05-14T20:11:17.417Z,13.87
2023-05-14T20:14:02.673Z,13.85
2023-05-14T20:16:48.417Z,13.81
2023-05-14T20:19:34.359Z,13.82
2023-05-14T20:22:19.784Z,13.81
2023-05-14T20:25:07.578Z,13.81
2023-05-14T20:27:53.030Z,13.76
2023-05-14T20:30:39.480Z,13.67
2023-05-14T20:33:25.741Z,13.57
2023-05-14T20:36:11.349Z,13.48
2023-05-14T20:38:56.576Z,13.40
2023-05-14T20:41:41.970Z,13.39
2023-05-14T20:44:27.397Z,13.35
2023-05-14T20:47:15.871Z,13.31
2023-05-14T20:50:01.513Z,13.27
2023-05-14T20:52:47.410Z,13.18
2023-05-14T20:55:33.252Z,13.08
2023-05-14T20:58:18.581Z,13.02
2023-05-14T21:01:07.385Z,13.00
2023-05-14T21:03:53.234Z,13.03
2023-05-14T21:06:39.042Z,13.07
2023-05-14T21:09:26.638Z,13.10
2023-05-14T21:12:12.308Z,13.12
2023-05-14T21:14:57.889Z,13.12
2023-05-14T21:17:43.274Z,13.08
2023-05-14T21:20:29.125Z,13.03
2023-05-14T21:23:14.398Z,13.02
2023-05-14T21:26:00.151Z,12.94
2023-05-14T21:28:45.620Z,12.84
2023-05-14T21:31:30.965Z,12.76
2023-05-14T21:34:16.321Z,12.69
2023-05-14T21:37:04.560Z,12.61
2023-05-14T21:39:50.914Z,12.56
2023-05-14T21:42:36.701Z,12.49
2023-05-14T21:45:23.629Z,12.40
2023-05-14T21:48:09.877Z,12.36
2023-05-14T21:50:55.639Z,12.31
2023-05-14T21:53:40.858Z,12.26
2023-05-14T21:56:26.704Z,12.18
2023-05-14T21:59:12.298Z,12.06
2023-05-14T22:02:07.051Z,11.94
2023-05-14T22:04:53.337Z,11.89
2023-05-14T22:07:38.752Z,11.82
2023-05-14T22:10:24.084Z,11.82
2023-05-14T22:13:10.440Z,11.76
2023-05-14T22:16:09.204Z,11.74
2023-05-14T22:18:58.150Z,11.67
2023-05-14T22:21:43.357Z,11.58
2023-05-14T22:24:28.691Z,11.54
2023-05-14T22:27:14.252Z,11.50
2023-05-14T22:29:59.906Z,11.48
2023-05-14T22:32:46.873Z,11.45
2023-05-14T22:35:32.214Z,11.45
2023-05-14T22:38:19.436Z,11.44
2023-05-14T22:41:04.684Z,11.40
2023-05-14T22:43:50.347Z,11.38
2023-05-14T22:46:35.797Z,11.34
2023-05-14T22:49:21.042Z,11.32
2023-05-14T22:52:06.709Z,11.26
2023-05-14T22:54:52.640Z,11.21
2023-05-14T22:57:38.317Z,11.17
2023-05-14T23:00:25.023Z,11.10
2023-05-14T23:03:10.521Z,11.10
2023-05-14T23:05:56.120Z,11.11
2023-05-14T23:08:41.397Z,11.12
2023-05-14T23:11:26.897Z,11.11
2023-05-14T23:14:12.101Z,11.12
2023-05-14T23:16:57.440Z,11.09
2023-05-14T23:19:42.977Z,11.08
2023-05-14T23:22:28.365Z,11.05
2023-05-14T23:25:14.058Z,11.05
2023-05-14T23:27:59.973Z,11.00
2023-05-14T23:30:45.357Z,11.00
2023-05-14T23:33:30.968Z,11.00
2023-05-14T23:36:16.427Z,10.94
2023-05-14T23:39:01.881Z,10.89
2023-05-14T23:41:47.134Z,10.89
2023-05-14T23:44:32.460Z,10.91
2023-05-14T23:47:17.901Z,10.95
2023-05-14T23:50:04.318Z,10.99
2023-05-14T23:52:54.103Z,11.03
2023-05-14T23:55:40.616Z,11.08
2023-05-14T23:58:26.070Z,11.15
